sensor_id;sensor_type;location;lat;lon;timestamp;P1;durP1;ratioP1;P2;durP2;ratioP2
69894;SDS011;57172;52.034;5.090;2024-02-21T00:00:33;12.57;;;3.40;;
69894;SDS011;57172;52.034;5.090;2024-02-21T00:03:00;8.32;;;3.17;;
69894;SDS011;57172;52.034;5.090;2024-02-21T00:05:28;11.02;;;3.50;;
69894;SDS011;57172;52.034;5.090;2024-02-21T00:07:55;13.95;;;3.47;;
69894;SDS011;57172;52.034;5.090;2024-02-21T00:10:25;12.27;;;3.63;;
69894;SDS011;57172;52.034;5.090;2024-02-21T00:12:53;10.27;;;3.25;;
69894;SDS011;57172;52.034;5.090;2024-02-21T00:15:20;11.75;;;3.38;;
69894;SDS011;57172;52.034;5.090;2024-02-21T00:17:47;14.50;;;3.22;;
69894;SDS011;57172;52.034;5.090;2024-02-21T00:20:15;13.25;;;3.38;;
69894;SDS011;57172;52.034;5.090;2024-02-21T00:22:41;12.98;;;3.13;;
69894;SDS011;57172;52.034;5.090;2024-02-21T00:25:08;12.90;;;3.22;;
69894;SDS011;57172;52.034;5.090;2024-02-21T00:27:35;9.88;;;3.20;;
69894;SDS011;57172;52.034;5.090;2024-02-21T00:30:03;10.63;;;3.28;;
69894;SDS011;57172;52.034;5.090;2024-02-21T00:32:30;11.00;;;3.35;;
69894;SDS011;57172;52.034;5.090;2024-02-21T00:34:58;12.77;;;3.05;;
69894;SDS011;57172;52.034;5.090;2024-02-21T00:37:25;9.52;;;3.10;;
69894;SDS011;57172;52.034;5.090;2024-02-21T00:39:53;10.48;;;3.50;;
69894;SDS011;57172;52.034;5.090;2024-02-21T00:42:21;13.80;;;3.17;;
69894;SDS011;57172;52.034;5.090;2024-02-21T00:44:47;13.48;;;3.40;;
69894;SDS011;57172;52.034;5.090;2024-02-21T00:47:14;15.13;;;3.45;;
69894;SDS011;57172;52.034;5.090;2024-02-21T00:49:42;10.95;;;3.63;;
69894;SDS011;57172;52.034;5.090;2024-02-21T00:52:08;13.40;;;3.30;;
69894;SDS011;57172;52.034;5.090;2024-02-21T00:54:35;17.15;;;3.95;;
69894;SDS011;57172;52.034;5.090;2024-02-21T00:57:15;9.73;;;3.10;;
69894;SDS011;57172;52.034;5.090;2024-02-21T00:59:42;10.50;;;3.53;;
69894;SDS011;57172;52.034;5.090;2024-02-21T01:02:09;14.55;;;3.47;;
69894;SDS011;57172;52.034;5.090;2024-02-21T01:04:36;11.98;;;3.30;;
69894;SDS011;57172;52.034;5.090;2024-02-21T01:07:03;14.23;;;3.72;;
69894;SDS011;57172;52.034;5.090;2024-02-21T01:09:30;11.98;;;3.30;;
69894;SDS011;57172;52.034;5.090;2024-02-21T01:11:57;13.38;;;3.47;;
69894;SDS011;57172;52.034;5.090;2024-02-21T01:14:24;9.73;;;3.50;;
69894;SDS011;57172;52.034;5.090;2024-02-21T01:16:50;13.77;;;3.65;;
69894;SDS011;57172;52.034;5.090;2024-02-21T01:19:18;14.10;;;3.80;;
69894;SDS011;57172;52.034;5.090;2024-02-21T01:21:45;14.90;;;3.70;;
69894;SDS011;57172;52.034;5.090;2024-02-21T01:24:12;14.00;;;3.55;;
69894;SDS011;57172;52.034;5.090;2024-02-21T01:26:38;12.27;;;3.80;;
69894;SDS011;57172;52.034;5.090;2024-02-21T01:29:05;13.55;;;3.40;;
69894;SDS011;57172;52.034;5.090;2024-02-21T01:31:32;9.90;;;3.63;;
69894;SDS011;57172;52.034;5.090;2024-02-21T01:33:59;15.40;;;3.95;;
69894;SDS011;57172;52.034;5.090;2024-02-21T01:36:26;11.73;;;2.95;;
69894;SDS011;57172;52.034;5.090;2024-02-21T01:38:53;11.88;;;3.47;;
69894;SDS011;57172;52.034;5.090;2024-02-21T01:41:20;17.50;;;4.28;;
69894;SDS011;57172;52.034;5.090;2024-02-21T01:43:46;13.80;;;3.80;;
69894;SDS011;57172;52.034;5.090;2024-02-21T01:46:13;11.68;;;3.97;;
69894;SDS011;57172;52.034;5.090;2024-02-21T01:48:40;12.02;;;3.58;;
69894;SDS011;57172;52.034;5.090;2024-02-21T01:51:07;14.40;;;4.20;;
69894;SDS011;57172;52.034;5.090;2024-02-21T01:53:36;10.80;;;4.38;;
69894;SDS011;57172;52.034;5.090;2024-02-21T01:56:07;13.00;;;3.75;;
69894;SDS011;57172;52.034;5.090;2024-02-21T01:58:35;12.27;;;5.00;;
69894;SDS011;57172;52.034;5.090;2024-02-21T02:01:03;10.80;;;4.13;;
69894;SDS011;57172;52.034;5.090;2024-02-21T02:03:30;16.85;;;4.20;;
69894;SDS011;57172;52.034;5.090;2024-02-21T02:05:57;12.80;;;4.32;;
69894;SDS011;57172;52.034;5.090;2024-02-21T02:08:24;13.15;;;4.90;;
69894;SDS011;57172;52.034;5.090;2024-02-21T02:10:52;10.10;;;3.47;;
69894;SDS011;57172;52.034;5.090;2024-02-21T02:13:19;12.60;;;4.90;;
69894;SDS011;57172;52.034;5.090;2024-02-21T02:15:49;12.93;;;4.15;;
69894;SDS011;57172;52.034;5.090;2024-02-21T02:18:17;12.52;;;4.57;;
69894;SDS011;57172;52.034;5.090;2024-02-21T02:20:45;16.08;;;5.00;;
69894;SDS011;57172;52.034;5.090;2024-02-21T02:25:49;15.68;;;4.30;;
69894;SDS011;57172;52.034;5.090;2024-02-21T02:28:20;16.80;;;4.15;;
69894;SDS011;57172;52.034;5.090;2024-02-21T02:30:48;15.52;;;4.40;;
69894;SDS011;57172;52.034;5.090;2024-02-21T02:33:15;13.90;;;4.15;;
69894;SDS011;57172;52.034;5.090;2024-02-21T02:35:46;13.43;;;3.80;;
69894;SDS011;57172;52.034;5.090;2024-02-21T02:38:13;12.93;;;3.88;;
69894;SDS011;57172;52.034;5.090;2024-02-21T02:40:40;12.88;;;4.10;;
69894;SDS011;57172;52.034;5.090;2024-02-21T02:43:08;10.10;;;3.42;;
69894;SDS011;57172;52.034;5.090;2024-02-21T02:45:35;12.48;;;4.40;;
69894;SDS011;57172;52.034;5.090;2024-02-21T02:48:02;11.93;;;4.22;;
69894;SDS011;57172;52.034;5.090;2024-02-21T02:50:29;15.63;;;4.45;;
69894;SDS011;57172;52.034;5.090;2024-02-21T02:52:57;12.38;;;4.28;;
69894;SDS011;57172;52.034;5.090;2024-02-21T02:55:24;10.65;;;4.60;;
69894;SDS011;57172;52.034;5.090;2024-02-21T02:57:53;10.85;;;3.85;;
69894;SDS011;57172;52.034;5.090;2024-02-21T03:00:20;12.32;;;4.10;;
69894;SDS011;57172;52.034;5.090;2024-02-21T03:02:48;16.67;;;4.13;;
69894;SDS011;57172;52.034;5.090;2024-02-21T03:05:17;9.77;;;3.92;;
69894;SDS011;57172;52.034;5.090;2024-02-21T03:07:48;16.50;;;4.30;;
69894;SDS011;57172;52.034;5.090;2024-02-21T03:10:16;9.18;;;4.00;;
69894;SDS011;57172;52.034;5.090;2024-02-21T03:12:44;12.05;;;4.32;;
69894;SDS011;57172;52.034;5.090;2024-02-21T03:15:12;10.80;;;3.88;;
69894;SDS011;57172;52.034;5.090;2024-02-21T03:17:40;12.48;;;4.28;;
69894;SDS011;57172;52.034;5.090;2024-02-21T03:20:08;16.83;;;4.50;;
69894;SDS011;57172;52.034;5.090;2024-02-21T03:22:37;13.88;;;4.47;;
69894;SDS011;57172;52.034;5.090;2024-02-21T03:25:04;11.65;;;4.40;;
69894;SDS011;57172;52.034;5.090;2024-02-21T03:27:33;13.13;;;4.45;;
69894;SDS011;57172;52.034;5.090;2024-02-21T03:30:00;15.23;;;5.53;;
69894;SDS011;57172;52.034;5.090;2024-02-21T03:32:27;11.82;;;4.65;;
69894;SDS011;57172;52.034;5.090;2024-02-21T03:34:55;11.50;;;4.93;;
69894;SDS011;57172;52.034;5.090;2024-02-21T03:37:22;13.50;;;4.10;;
69894;SDS011;57172;52.034;5.090;2024-02-21T03:39:49;10.68;;;3.63;;
69894;SDS011;57172;52.034;5.090;2024-02-21T03:42:16;11.43;;;3.88;;
69894;SDS011;57172;52.034;5.090;2024-02-21T03:44:42;12.43;;;4.38;;
69894;SDS011;57172;52.034;5.090;2024-02-21T03:47:09;8.50;;;3.28;;
69894;SDS011;57172;52.034;5.090;2024-02-21T03:49:38;14.57;;;4.63;;
69894;SDS011;57172;52.034;5.090;2024-02-21T03:52:05;9.65;;;4.00;;
69894;SDS011;57172;52.034;5.090;2024-02-21T03:54:32;16.10;;;3.83;;
69894;SDS011;57172;52.034;5.090;2024-02-21T03:56:59;14.60;;;3.90;;
69894;SDS011;57172;52.034;5.090;2024-02-21T03:59:26;10.82;;;4.40;;
69894;SDS011;57172;52.034;5.090;2024-02-21T04:01:53;13.07;;;4.70;;
69894;SDS011;57172;52.034;5.090;2024-02-21T04:04:20;10.95;;;4.35;;
69894;SDS011;57172;52.034;5.090;2024-02-21T04:06:48;14.20;;;5.30;;
69894;SDS011;57172;52.034;5.090;2024-02-21T04:09:16;9.63;;;4.13;;
69894;SDS011;57172;52.034;5.090;2024-02-21T04:11:43;14.85;;;4.78;;
69894;SDS011;57172;52.034;5.090;2024-02-21T04:14:10;11.25;;;4.45;;
69894;SDS011;57172;52.034;5.090;2024-02-21T04:16:38;9.32;;;3.92;;
69894;SDS011;57172;52.034;5.090;2024-02-21T04:19:06;14.05;;;4.85;;
69894;SDS011;57172;52.034;5.090;2024-02-21T04:21:34;10.90;;;5.03;;
69894;SDS011;57172;52.034;5.090;2024-02-21T04:24:01;10.25;;;4.70;;
69894;SDS011;57172;52.034;5.090;2024-02-21T04:26:30;13.88;;;4.53;;
69894;SDS011;57172;52.034;5.090;2024-02-21T04:28:57;11.40;;;5.10;;
69894;SDS011;57172;52.034;5.090;2024-02-21T04:31:24;12.27;;;5.10;;
69894;SDS011;57172;52.034;5.090;2024-02-21T04:33:51;12.07;;;5.20;;
69894;SDS011;57172;52.034;5.090;2024-02-21T04:36:18;12.85;;;5.53;;
69894;SDS011;57172;52.034;5.090;2024-02-21T04:38:45;14.27;;;5.10;;
69894;SDS011;57172;52.034;5.090;2024-02-21T04:41:12;13.98;;;5.60;;
69894;SDS011;57172;52.034;5.090;2024-02-21T04:43:39;13.73;;;6.18;;
69894;SDS011;57172;52.034;5.090;2024-02-21T04:46:06;13.38;;;6.22;;
69894;SDS011;57172;52.034;5.090;2024-02-21T04:48:32;12.32;;;5.70;;
69894;SDS011;57172;52.034;5.090;2024-02-21T04:50:59;9.70;;;5.20;;
69894;SDS011;57172;52.034;5.090;2024-02-21T04:53:26;14.50;;;6.15;;
69894;SDS011;57172;52.034;5.090;2024-02-21T04:55:53;11.82;;;5.35;;
69894;SDS011;57172;52.034;5.090;2024-02-21T04:58:20;13.52;;;6.05;;
69894;SDS011;57172;52.034;5.090;2024-02-21T05:00:47;11.13;;;5.25;;
69894;SDS011;57172;52.034;5.090;2024-02-21T05:03:14;14.05;;;6.00;;
69894;SDS011;57172;52.034;5.090;2024-02-21T05:05:41;11.65;;;5.97;;
69894;SDS011;57172;52.034;5.090;2024-02-21T05:08:09;15.20;;;6.82;;
69894;SDS011;57172;52.034;5.090;2024-02-21T05:10:36;16.90;;;6.32;;
69894;SDS011;57172;52.034;5.090;2024-02-21T05:13:03;15.52;;;6.05;;
69894;SDS011;57172;52.034;5.090;2024-02-21T05:15:31;13.82;;;6.20;;
69894;SDS011;57172;52.034;5.090;2024-02-21T05:17:57;16.67;;;6.30;;
69894;SDS011;57172;52.034;5.090;2024-02-21T05:20:24;13.90;;;6.05;;
69894;SDS011;57172;52.034;5.090;2024-02-21T05:22:52;12.80;;;5.38;;
69894;SDS011;57172;52.034;5.090;2024-02-21T05:25:19;14.07;;;5.82;;
69894;SDS011;57172;52.034;5.090;2024-02-21T05:27:45;12.80;;;6.10;;
69894;SDS011;57172;52.034;5.090;2024-02-21T05:30:12;12.07;;;5.75;;
69894;SDS011;57172;52.034;5.090;2024-02-21T05:32:39;12.05;;;5.72;;
69894;SDS011;57172;52.034;5.090;2024-02-21T05:35:06;13.18;;;6.18;;
69894;SDS011;57172;52.034;5.090;2024-02-21T05:37:34;12.52;;;6.30;;
69894;SDS011;57172;52.034;5.090;2024-02-21T05:40:00;13.75;;;6.10;;
69894;SDS011;57172;52.034;5.090;2024-02-21T05:42:27;13.45;;;5.30;;
69894;SDS011;57172;52.034;5.090;2024-02-21T05:44:54;14.48;;;6.70;;
69894;SDS011;57172;52.034;5.090;2024-02-21T05:47:21;13.10;;;6.30;;
69894;SDS011;57172;52.034;5.090;2024-02-21T05:49:48;12.85;;;6.70;;
69894;SDS011;57172;52.034;5.090;2024-02-21T05:52:15;13.02;;;6.40;;
69894;SDS011;57172;52.034;5.090;2024-02-21T05:54:42;14.05;;;7.13;;
69894;SDS011;57172;52.034;5.090;2024-02-21T05:57:09;11.80;;;6.63;;
69894;SDS011;57172;52.034;5.090;2024-02-21T05:59:37;12.32;;;6.35;;
69894;SDS011;57172;52.034;5.090;2024-02-21T06:02:06;14.10;;;6.70;;
69894;SDS011;57172;52.034;5.090;2024-02-21T06:04:33;14.45;;;6.70;;
69894;SDS011;57172;52.034;5.090;2024-02-21T06:07:01;19.70;;;7.70;;
69894;SDS011;57172;52.034;5.090;2024-02-21T06:09:28;20.05;;;8.32;;
69894;SDS011;57172;52.034;5.090;2024-02-21T06:11:55;14.63;;;7.45;;
69894;SDS011;57172;52.034;5.090;2024-02-21T06:14:22;19.15;;;8.05;;
69894;SDS011;57172;52.034;5.090;2024-02-21T06:16:49;22.67;;;9.30;;
69894;SDS011;57172;52.034;5.090;2024-02-21T06:19:16;16.85;;;9.18;;
69894;SDS011;57172;52.034;5.090;2024-02-21T06:21:43;19.98;;;8.60;;
69894;SDS011;57172;52.034;5.090;2024-02-21T06:24:10;19.80;;;8.32;;
69894;SDS011;57172;52.034;5.090;2024-02-21T06:26:39;14.20;;;6.57;;
69894;SDS011;57172;52.034;5.090;2024-02-21T06:29:07;19.30;;;8.18;;
69894;SDS011;57172;52.034;5.090;2024-02-21T06:31:34;15.57;;;6.43;;
69894;SDS011;57172;52.034;5.090;2024-02-21T06:34:02;17.30;;;8.38;;
69894;SDS011;57172;52.034;5.090;2024-02-21T06:36:29;17.65;;;8.10;;
69894;SDS011;57172;52.034;5.090;2024-02-21T06:38:56;16.42;;;7.72;;
69894;SDS011;57172;52.034;5.090;2024-02-21T06:41:23;26.63;;;8.35;;
69894;SDS011;57172;52.034;5.090;2024-02-21T06:43:50;21.85;;;8.60;;
69894;SDS011;57172;52.034;5.090;2024-02-21T06:46:24;20.25;;;8.50;;
69894;SDS011;57172;52.034;5.090;2024-02-21T06:48:52;19.27;;;6.95;;
69894;SDS011;57172;52.034;5.090;2024-02-21T06:51:20;17.83;;;7.78;;
69894;SDS011;57172;52.034;5.090;2024-02-21T06:53:46;22.73;;;8.68;;
69894;SDS011;57172;52.034;5.090;2024-02-21T06:56:13;18.80;;;8.45;;
69894;SDS011;57172;52.034;5.090;2024-02-21T06:58:40;19.70;;;7.50;;
69894;SDS011;57172;52.034;5.090;2024-02-21T07:01:07;22.13;;;9.05;;
69894;SDS011;57172;52.034;5.090;2024-02-21T07:03:35;19.73;;;8.25;;
69894;SDS011;57172;52.034;5.090;2024-02-21T07:06:02;21.08;;;8.20;;
69894;SDS011;57172;52.034;5.090;2024-02-21T07:08:30;19.52;;;8.02;;
69894;SDS011;57172;52.034;5.090;2024-02-21T07:10:57;23.10;;;8.27;;
69894;SDS011;57172;52.034;5.090;2024-02-21T07:13:24;24.85;;;9.13;;
69894;SDS011;57172;52.034;5.090;2024-02-21T07:15:51;18.38;;;7.60;;
69894;SDS011;57172;52.034;5.090;2024-02-21T07:18:18;18.77;;;7.40;;
69894;SDS011;57172;52.034;5.090;2024-02-21T07:20:45;21.77;;;8.18;;
69894;SDS011;57172;52.034;5.090;2024-02-21T07:23:12;19.83;;;8.48;;
69894;SDS011;57172;52.034;5.090;2024-02-21T07:25:39;18.73;;;8.40;;
69894;SDS011;57172;52.034;5.090;2024-02-21T07:28:06;19.70;;;9.07;;
69894;SDS011;57172;52.034;5.090;2024-02-21T07:30:33;20.52;;;8.00;;
69894;SDS011;57172;52.034;5.090;2024-02-21T07:33:00;22.27;;;8.43;;
69894;SDS011;57172;52.034;5.090;2024-02-21T07:35:27;20.13;;;8.73;;
69894;SDS011;57172;52.034;5.090;2024-02-21T07:37:54;18.00;;;7.60;;
69894;SDS011;57172;52.034;5.090;2024-02-21T07:40:21;22.55;;;8.40;;
69894;SDS011;57172;52.034;5.090;2024-02-21T07:42:48;20.58;;;8.25;;
69894;SDS011;57172;52.034;5.090;2024-02-21T07:45:17;21.48;;;8.90;;
69894;SDS011;57172;52.034;5.090;2024-02-21T07:47:50;21.02;;;9.30;;
69894;SDS011;57172;52.034;5.090;2024-02-21T07:50:17;22.30;;;9.43;;
69894;SDS011;57172;52.034;5.090;2024-02-21T07:52:44;19.92;;;8.85;;
69894;SDS011;57172;52.034;5.090;2024-02-21T07:55:11;17.38;;;7.65;;
69894;SDS011;57172;52.034;5.090;2024-02-21T07:57:38;14.65;;;6.65;;
69894;SDS011;57172;52.034;5.090;2024-02-21T08:00:05;19.17;;;7.65;;
69894;SDS011;57172;52.034;5.090;2024-02-21T08:02:37;20.25;;;8.18;;
69894;SDS011;57172;52.034;5.090;2024-02-21T08:05:04;17.83;;;7.22;;
69894;SDS011;57172;52.034;5.090;2024-02-21T08:07:31;21.23;;;8.55;;
69894;SDS011;57172;52.034;5.090;2024-02-21T08:09:58;18.55;;;6.78;;
69894;SDS011;57172;52.034;5.090;2024-02-21T08:12:25;24.30;;;8.45;;
69894;SDS011;57172;52.034;5.090;2024-02-21T08:14:53;20.85;;;8.52;;
69894;SDS011;57172;52.034;5.090;2024-02-21T08:17:20;19.08;;;8.20;;
69894;SDS011;57172;52.034;5.090;2024-02-21T08:19:47;20.02;;;8.32;;
69894;SDS011;57172;52.034;5.090;2024-02-21T08:22:15;19.15;;;8.40;;
69894;SDS011;57172;52.034;5.090;2024-02-21T08:24:42;16.50;;;7.88;;
69894;SDS011;57172;52.034;5.090;2024-02-21T08:27:09;19.02;;;7.57;;
69894;SDS011;57172;52.034;5.090;2024-02-21T08:29:36;18.20;;;7.70;;
69894;SDS011;57172;52.034;5.090;2024-02-21T08:32:03;20.08;;;7.55;;
69894;SDS011;57172;52.034;5.090;2024-02-21T08:34:30;19.17;;;8.77;;
69894;SDS011;57172;52.034;5.090;2024-02-21T08:37:00;20.15;;;8.70;;
69894;SDS011;57172;52.034;5.090;2024-02-21T08:39:27;20.58;;;9.30;;
69894;SDS011;57172;52.034;5.090;2024-02-21T08:41:56;20.00;;;9.02;;
69894;SDS011;57172;52.034;5.090;2024-02-21T08:44:23;19.30;;;9.65;;
69894;SDS011;57172;52.034;5.090;2024-02-21T08:46:54;16.00;;;8.02;;
69894;SDS011;57172;52.034;5.090;2024-02-21T08:49:21;19.50;;;9.32;;
69894;SDS011;57172;52.034;5.090;2024-02-21T08:51:49;20.60;;;8.70;;
69894;SDS011;57172;52.034;5.090;2024-02-21T08:54:16;18.70;;;8.20;;
69894;SDS011;57172;52.034;5.090;2024-02-21T08:56:43;20.83;;;7.68;;
69894;SDS011;57172;52.034;5.090;2024-02-21T08:59:10;16.48;;;6.82;;
69894;SDS011;57172;52.034;5.090;2024-02-21T09:01:37;16.08;;;7.35;;
69894;SDS011;57172;52.034;5.090;2024-02-21T09:04:04;18.48;;;8.48;;
69894;SDS011;57172;52.034;5.090;2024-02-21T09:06:32;16.65;;;8.38;;
69894;SDS011;57172;52.034;5.090;2024-02-21T09:09:00;18.05;;;8.35;;
69894;SDS011;57172;52.034;5.090;2024-02-21T09:11:27;19.58;;;8.25;;
69894;SDS011;57172;52.034;5.090;2024-02-21T09:13:55;20.20;;;7.85;;
69894;SDS011;57172;52.034;5.090;2024-02-21T09:16:22;16.80;;;7.72;;
69894;SDS011;57172;52.034;5.090;2024-02-21T09:18:50;19.38;;;8.32;;
69894;SDS011;57172;52.034;5.090;2024-02-21T09:21:17;16.25;;;6.72;;
69894;SDS011;57172;52.034;5.090;2024-02-21T09:23:45;17.40;;;7.03;;
69894;SDS011;57172;52.034;5.090;2024-02-21T09:26:11;18.80;;;6.68;;
69894;SDS011;57172;52.034;5.090;2024-02-21T09:28:42;16.48;;;7.18;;
69894;SDS011;57172;52.034;5.090;2024-02-21T09:31:10;14.30;;;6.72;;
69894;SDS011;57172;52.034;5.090;2024-02-21T09:33:37;17.25;;;6.90;;
69894;SDS011;57172;52.034;5.090;2024-02-21T09:36:05;14.57;;;6.25;;
69894;SDS011;57172;52.034;5.090;2024-02-21T09:38:32;13.57;;;6.55;;
69894;SDS011;57172;52.034;5.090;2024-02-21T09:43:38;15.30;;;6.15;;
69894;SDS011;57172;52.034;5.090;2024-02-21T09:46:06;15.15;;;6.65;;
69894;SDS011;57172;52.034;5.090;2024-02-21T09:48:51;18.52;;;7.20;;
69894;SDS011;57172;52.034;5.090;2024-02-21T09:51:39;13.48;;;6.32;;
69894;SDS011;57172;52.034;5.090;2024-02-21T09:54:08;12.93;;;5.90;;
69894;SDS011;57172;52.034;5.090;2024-02-21T09:56:44;13.13;;;6.30;;
69894;SDS011;57172;52.034;5.090;2024-02-21T09:59:13;12.60;;;5.32;;
69894;SDS011;57172;52.034;5.090;2024-02-21T10:01:45;16.70;;;6.75;;
69894;SDS011;57172;52.034;5.090;2024-02-21T10:04:13;11.82;;;5.53;;
69894;SDS011;57172;52.034;5.090;2024-02-21T10:06:41;10.27;;;4.32;;
69894;SDS011;57172;52.034;5.090;2024-02-21T10:09:08;12.02;;;5.32;;
69894;SDS011;57172;52.034;5.090;2024-02-21T10:11:35;11.70;;;5.80;;
69894;SDS011;57172;52.034;5.090;2024-02-21T10:14:06;8.93;;;4.75;;
69894;SDS011;57172;52.034;5.090;2024-02-21T10:16:34;13.40;;;5.72;;
69894;SDS011;57172;52.034;5.090;2024-02-21T10:19:04;14.07;;;6.43;;
69894;SDS011;57172;52.034;5.090;2024-02-21T10:21:31;11.52;;;5.03;;
69894;SDS011;57172;52.034;5.090;2024-02-21T10:23:58;12.02;;;5.53;;
69894;SDS011;57172;52.034;5.090;2024-02-21T10:26:25;12.15;;;5.22;;
69894;SDS011;57172;52.034;5.090;2024-02-21T10:28:51;9.98;;;4.85;;
69894;SDS011;57172;52.034;5.090;2024-02-21T10:31:24;10.30;;;5.85;;
69894;SDS011;57172;52.034;5.090;2024-02-21T10:33:56;11.60;;;4.97;;
69894;SDS011;57172;52.034;5.090;2024-02-21T10:36:24;8.32;;;3.80;;
69894;SDS011;57172;52.034;5.090;2024-02-21T10:38:52;11.35;;;5.15;;
69894;SDS011;57172;52.034;5.090;2024-02-21T10:41:19;8.32;;;4.18;;
69894;SDS011;57172;52.034;5.090;2024-02-21T10:43:50;9.77;;;4.88;;
69894;SDS011;57172;52.034;5.090;2024-02-21T10:46:21;7.38;;;4.10;;
69894;SDS011;57172;52.034;5.090;2024-02-21T10:49:07;8.80;;;5.20;;
69894;SDS011;57172;52.034;5.090;2024-02-21T10:51:40;8.77;;;4.82;;
69894;SDS011;57172;52.034;5.090;2024-02-21T10:57:00;10.00;;;4.75;;
69894;SDS011;57172;52.034;5.090;2024-02-21T10:59:30;10.60;;;5.05;;
69894;SDS011;57172;52.034;5.090;2024-02-21T11:01:58;10.15;;;5.10;;
69894;SDS011;57172;52.034;5.090;2024-02-21T11:04:26;8.98;;;4.88;;
69894;SDS011;57172;52.034;5.090;2024-02-21T11:06:54;7.80;;;4.60;;
69894;SDS011;57172;52.034;5.090;2024-02-21T11:09:29;9.20;;;5.47;;
69894;SDS011;57172;52.034;5.090;2024-02-21T11:12:02;9.35;;;4.93;;
69894;SDS011;57172;52.034;5.090;2024-02-21T11:14:31;10.55;;;6.10;;
69894;SDS011;57172;52.034;5.090;2024-02-21T11:17:18;11.35;;;5.65;;
69894;SDS011;57172;52.034;5.090;2024-02-21T11:19:49;10.25;;;5.40;;
69894;SDS011;57172;52.034;5.090;2024-02-21T11:22:19;12.68;;;4.85;;
69894;SDS011;57172;52.034;5.090;2024-02-21T11:24:51;12.55;;;6.13;;
69894;SDS011;57172;52.034;5.090;2024-02-21T11:27:20;11.73;;;6.10;;
69894;SDS011;57172;52.034;5.090;2024-02-21T11:29:49;11.43;;;5.30;;
69894;SDS011;57172;52.034;5.090;2024-02-21T11:32:20;11.70;;;6.35;;
69894;SDS011;57172;52.034;5.090;2024-02-21T11:34:58;13.52;;;7.85;;
69894;SDS011;57172;52.034;5.090;2024-02-21T11:37:34;14.50;;;6.68;;
69894;SDS011;57172;52.034;5.090;2024-02-21T11:40:06;12.77;;;7.28;;
69894;SDS011;57172;52.034;5.090;2024-02-21T11:42:38;13.65;;;7.03;;
69894;SDS011;57172;52.034;5.090;2024-02-21T11:45:06;14.30;;;7.28;;
69894;SDS011;57172;52.034;5.090;2024-02-21T11:47:35;11.32;;;5.45;;
69894;SDS011;57172;52.034;5.090;2024-02-21T11:50:09;13.27;;;6.70;;
69894;SDS011;57172;52.034;5.090;2024-02-21T11:52:37;12.65;;;7.05;;
69894;SDS011;57172;52.034;5.090;2024-02-21T11:55:05;12.63;;;6.13;;
69894;SDS011;57172;52.034;5.090;2024-02-21T11:57:35;12.60;;;6.78;;
69894;SDS011;57172;52.034;5.090;2024-02-21T12:00:17;11.38;;;5.53;;
69894;SDS011;57172;52.034;5.090;2024-02-21T12:02:47;11.65;;;6.22;;
69894;SDS011;57172;52.034;5.090;2024-02-21T12:05:14;13.05;;;6.68;;
69894;SDS011;57172;52.034;5.090;2024-02-21T12:07:41;11.25;;;6.20;;
69894;SDS011;57172;52.034;5.090;2024-02-21T12:10:12;11.15;;;5.80;;
69894;SDS011;57172;52.034;5.090;2024-02-21T12:12:40;11.05;;;5.70;;
69894;SDS011;57172;52.034;5.090;2024-02-21T12:15:07;10.25;;;4.72;;
69894;SDS011;57172;52.034;5.090;2024-02-21T12:17:37;10.38;;;5.10;;
69894;SDS011;57172;52.034;5.090;2024-02-21T12:20:07;12.07;;;5.78;;
69894;SDS011;57172;52.034;5.090;2024-02-21T12:22:36;12.60;;;5.68;;
69894;SDS011;57172;52.034;5.090;2024-02-21T12:25:16;11.75;;;5.07;;
69894;SDS011;57172;52.034;5.090;2024-02-21T12:27:48;10.23;;;5.25;;
69894;SDS011;57172;52.034;5.090;2024-02-21T12:30:16;11.68;;;5.47;;
69894;SDS011;57172;52.034;5.090;2024-02-21T12:32:43;10.05;;;5.43;;
69894;SDS011;57172;52.034;5.090;2024-02-21T12:35:10;10.80;;;5.72;;
69894;SDS011;57172;52.034;5.090;2024-02-21T12:37:37;11.70;;;5.75;;
69894;SDS011;57172;52.034;5.090;2024-02-21T12:40:08;9.68;;;5.28;;
69894;SDS011;57172;52.034;5.090;2024-02-21T12:42:36;10.88;;;5.80;;
69894;SDS011;57172;52.034;5.090;2024-02-21T12:45:03;11.05;;;5.45;;
69894;SDS011;57172;52.034;5.090;2024-02-21T12:47:31;9.80;;;4.90;;
69894;SDS011;57172;52.034;5.090;2024-02-21T12:49:58;13.02;;;5.32;;
69894;SDS011;57172;52.034;5.090;2024-02-21T12:52:25;11.10;;;5.13;;
69894;SDS011;57172;52.034;5.090;2024-02-21T12:54:52;11.30;;;5.90;;
69894;SDS011;57172;52.034;5.090;2024-02-21T12:57:22;11.93;;;5.40;;
69894;SDS011;57172;52.034;5.090;2024-02-21T12:59:52;9.20;;;5.15;;
69894;SDS011;57172;52.034;5.090;2024-02-21T13:02:19;9.75;;;4.55;;
69894;SDS011;57172;52.034;5.090;2024-02-21T13:04:47;11.82;;;5.47;;
69894;SDS011;57172;52.034;5.090;2024-02-21T13:07:14;11.98;;;4.90;;
69894;SDS011;57172;52.034;5.090;2024-02-21T13:09:40;7.88;;;4.70;;
69894;SDS011;57172;52.034;5.090;2024-02-21T13:12:07;8.48;;;4.45;;
69894;SDS011;57172;52.034;5.090;2024-02-21T13:14:34;13.05;;;4.60;;
69894;SDS011;57172;52.034;5.090;2024-02-21T13:17:03;9.13;;;4.03;;
69894;SDS011;57172;52.034;5.090;2024-02-21T13:19:30;11.73;;;4.47;;
69894;SDS011;57172;52.034;5.090;2024-02-21T13:21:57;11.60;;;4.40;;
69894;SDS011;57172;52.034;5.090;2024-02-21T13:24:24;10.15;;;4.95;;
69894;SDS011;57172;52.034;5.090;2024-02-21T13:26:51;7.43;;;3.58;;
69894;SDS011;57172;52.034;5.090;2024-02-21T13:29:18;11.77;;;4.82;;
69894;SDS011;57172;52.034;5.090;2024-02-21T13:31:44;10.52;;;5.00;;
69894;SDS011;57172;52.034;5.090;2024-02-21T13:34:11;9.88;;;5.00;;
69894;SDS011;57172;52.034;5.090;2024-02-21T13:36:38;11.60;;;4.60;;
69894;SDS011;57172;52.034;5.090;2024-02-21T13:39:05;10.98;;;4.80;;
69894;SDS011;57172;52.034;5.090;2024-02-21T13:41:34;10.77;;;5.03;;
69894;SDS011;57172;52.034;5.090;2024-02-21T13:44:01;11.38;;;4.85;;
69894;SDS011;57172;52.034;5.090;2024-02-21T13:46:30;9.88;;;4.28;;
69894;SDS011;57172;52.034;5.090;2024-02-21T13:49:02;9.35;;;4.65;;
69894;SDS011;57172;52.034;5.090;2024-02-21T13:51:36;10.13;;;4.15;;
69894;SDS011;57172;52.034;5.090;2024-02-21T13:54:04;8.98;;;4.18;;
69894;SDS011;57172;52.034;5.090;2024-02-21T13:56:31;11.82;;;4.00;;
69894;SDS011;57172;52.034;5.090;2024-02-21T13:58:58;11.07;;;5.03;;
69894;SDS011;57172;52.034;5.090;2024-02-21T14:01:26;10.70;;;4.20;;
69894;SDS011;57172;52.034;5.090;2024-02-21T14:03:58;10.55;;;4.10;;
69894;SDS011;57172;52.034;5.090;2024-02-21T14:06:25;11.23;;;4.90;;
69894;SDS011;57172;52.034;5.090;2024-02-21T14:08:52;9.07;;;4.47;;
69894;SDS011;57172;52.034;5.090;2024-02-21T14:11:19;12.77;;;4.70;;
69894;SDS011;57172;52.034;5.090;2024-02-21T14:13:46;9.38;;;4.05;;
69894;SDS011;57172;52.034;5.090;2024-02-21T14:16:13;11.32;;;5.10;;
69894;SDS011;57172;52.034;5.090;2024-02-21T14:18:40;10.77;;;4.43;;
69894;SDS011;57172;52.034;5.090;2024-02-21T14:21:08;9.93;;;5.22;;
69894;SDS011;57172;52.034;5.090;2024-02-21T14:23:37;10.23;;;4.47;;
69894;SDS011;57172;52.034;5.090;2024-02-21T14:26:04;6.55;;;3.70;;
69894;SDS011;57172;52.034;5.090;2024-02-21T14:28:32;11.60;;;4.25;;
69894;SDS011;57172;52.034;5.090;2024-02-21T14:31:02;10.27;;;4.40;;
69894;SDS011;57172;52.034;5.090;2024-02-21T14:33:32;7.10;;;3.40;;
69894;SDS011;57172;52.034;5.090;2024-02-21T14:35:59;10.13;;;5.00;;
69894;SDS011;57172;52.034;5.090;2024-02-21T14:38:26;8.07;;;4.18;;
69894;SDS011;57172;52.034;5.090;2024-02-21T14:40:54;9.25;;;3.70;;
69894;SDS011;57172;52.034;5.090;2024-02-21T14:43:21;9.40;;;4.20;;
69894;SDS011;57172;52.034;5.090;2024-02-21T14:45:48;7.90;;;3.80;;
69894;SDS011;57172;52.034;5.090;2024-02-21T14:48:15;8.63;;;3.85;;